Time;durP1;ratioP1;P1;durP2;ratioP2;P2;SDS_P1;SDS_P2;PMS_P1;PMS_P2;Temp;Humidity;BMP_temperature;BMP_pressure;BME280_temperature;BME280_humidity;BME280_pressure;Samples;Min_cycle;Max_cycle;Signal;HPM_P1;HPM_P2
2023/06/29 00:02:10;;;;;;;3.50;1.90;;;;;;;16.38;76.26;98718.66;79579;1297;3011679;-63
2023/06/29 00:04:38;;;;;;;3.80;2.10;;;;;;;16.91;75.50;98717.05;78357;1297;3025599;-62
2023/06/29 00:07:05;;;;;;;3.80;2.00;;;;;;;17.35;73.88;98724.27;79694;1292;3013691;-64
2023/06/29 00:09:31;;;;;;;3.50;2.00;;;;;;;17.29;74.74;98719.52;79708;1292;3011594;-64
2023/06/29 00:11:59;;;;;;;4.20;2.20;;;;;;;17.21;74.70;98714.34;78563;1298;3028832;-64
2023/06/29 00:14:26;;;;;;;6.70;2.50;;;;;;;17.00;75.21;98717.98;79690;1292;3013039;-64
2023/06/29 00:16:52;;;;;;;5.00;2.50;;;;;;;16.82;75.89;98715.83;79655;1293;3011740;-64
2023/06/29 00:19:20;;;;;;;4.50;2.30;;;;;;;16.73;75.36;98716.38;78525;1298;3026597;-61
2023/06/29 00:21:48;;;;;;;4.00;2.30;;;;;;;16.61;76.05;98713.42;79625;1298;3013502;-63
2023/06/29 00:24:14;;;;;;;6.00;2.60;;;;;;;17.25;75.44;98710.89;79621;1297;3011800;-63
2023/06/29 00:26:43;;;;;;;4.30;2.60;;;;;;;17.80;71.90;98705.34;78463;1295;3025805;-62
2023/06/29 00:29:09;;;;;;;5.30;2.30;;;;;;;17.55;72.48;98702.73;79629;1298;3013389;-63
2023/06/29 00:31:36;;;;;;;4.10;2.40;;;;;;;17.34;73.06;98703.96;79605;1297;3012619;-63
2023/06/29 00:34:04;;;;;;;5.50;2.60;;;;;;;16.99;74.21;98708.52;78407;1292;3025965;-62
2023/06/29 00:36:32;;;;;;;4.90;3.20;;;;;;;16.71;75.57;98713.75;79587;1292;3011827;-63
2023/06/29 00:38:59;;;;;;;3.70;2.50;;;;;;;16.41;77.77;98711.55;79665;1292;3011576;-65
2023/06/29 00:41:27;;;;;;;9.00;2.30;;;;;;;16.72;77.66;98708.71;78397;1297;3053684;-64
2023/06/29 00:43:55;;;;;;;5.40;2.00;;;;;;;17.07;75.46;98706.52;79600;1296;3012834;-62
2023/06/29 00:46:21;;;;;;;2.70;2.10;;;;;;;17.00;74.11;98707.91;79589;1292;3011841;-64
2023/06/29 00:48:49;;;;;;;7.00;2.70;;;;;;;16.76;74.71;98707.04;78373;1298;3056951;-62
2023/06/29 00:51:16;;;;;;;2.90;1.90;;;;;;;16.47;74.99;98706.51;79615;1293;3019255;-62
2023/06/29 00:53:43;;;;;;;3.50;2.60;;;;;;;16.39;74.79;98703.41;79734;1292;3013292;-64
2023/06/29 00:56:11;;;;;;;3.00;1.70;;;;;;;16.22;76.14;98701.46;78345;1298;3028084;-61
2023/06/29 00:58:38;;;;;;;4.20;2.30;;;;;;;16.81;75.40;98697.86;79658;1292;3013105;-63
2023/06/29 01:01:04;;;;;;;4.70;2.50;;;;;;;17.18;73.54;98694.44;79404;1293;3011568;-62
2023/06/29 01:03:36;;;;;;;4.30;2.40;;;;;;;17.11;72.61;98693.41;78369;1297;3056279;-62
2023/06/29 01:06:04;;;;;;;3.60;1.80;;;;;;;16.90;72.42;98694.54;79613;1292;3013545;-65
2023/06/29 01:08:36;;;;;;;2.60;1.90;;;;;;;16.62;73.29;98688.10;79197;1292;3011909;-62
2023/06/29 01:11:03;;;;;;;2.30;1.80;;;;;;;16.52;73.16;98683.06;79666;1298;3012099;-63
2023/06/29 01:13:33;;;;;;;4.30;2.40;;;;;;;16.30;73.90;98692.77;78256;1298;3053441;-63
2023/06/29 01:15:59;;;;;;;4.00;2.30;;;;;;;16.18;74.14;98691.98;79524;1297;3013285;-64
2023/06/29 01:18:29;;;;;;;3.00;1.60;;;;;;;16.02;75.17;98684.70;79481;1292;3011988;-64
2023/06/29 01:20:58;;;;;;;3.40;1.70;;;;;;;16.59;74.24;98680.23;78281;1298;3058237;-63
2023/06/29 01:23:25;;;;;;;4.30;1.70;;;;;;;16.93;72.20;98678.38;79637;1294;3013101;-64
2023/06/29 01:25:54;;;;;;;3.00;2.00;;;;;;;16.91;72.48;98681.95;79676;1293;3011535;-63
2023/06/29 01:28:22;;;;;;;4.90;2.00;;;;;;;16.84;72.32;98683.96;78366;1296;3052049;-64
2023/06/29 01:30:49;;;;;;;2.70;1.70;;;;;;;16.70;72.86;98684.11;79576;1297;3018625;-63
2023/06/29 01:33:19;;;;;;;2.70;2.10;;;;;;;16.45;73.98;98675.27;79656;1298;3011806;-63
2023/06/29 01:35:47;;;;;;;4.20;2.00;;;;;;;16.28;75.21;98672.75;78370;1298;3057211;-63
2023/06/29 01:38:18;;;;;;;5.60;2.30;;;;;;;16.19;75.37;98674.55;79467;1292;3013316;-63
2023/06/29 01:40:47;;;;;;;3.70;2.20;;;;;;;16.02;77.30;98673.02;78401;1297;3050209;-64
2023/06/29 01:43:14;;;;;;;9.40;3.80;;;;;;;16.57;76.21;98670.13;79319;1298;3014247;-64
2023/06/29 01:45:41;;;;;;;8.70;4.40;;;;;;;16.90;74.97;98668.48;79423;1298;3011742;-63
2023/06/29 01:48:09;;;;;;;7.70;3.90;;;;;;;16.97;75.41;98666.63;78107;1295;3051429;-63
2023/06/29 01:50:36;;;;;;;7.60;3.20;;;;;;;16.78;76.19;98667.05;79328;1295;3012954;-63
2023/06/29 01:53:04;;;;;;;10.20;3.30;;;;;;;16.52;76.85;98664.50;79364;1295;3012859;-63
2023/06/29 01:55:32;;;;;;;5.50;3.40;;;;;;;16.32;77.78;98664.48;78158;1299;3050814;-61
2023/06/29 01:57:59;;;;;;;10.80;4.00;;;;;;;16.12;77.83;98671.67;79508;1298;3015937;-62
2023/06/29 02:00:26;;;;;;;15.70;5.20;;;;;;;15.98;79.01;98667.23;79330;1295;3011910;-64
2023/06/29 02:02:54;;;;;;;57.10;18.40;;;;;;;16.28;78.15;98668.02;78253;1298;3051770;-62
2023/06/29 02:05:21;;;;;;;54.50;19.70;;;;;;;16.65;77.09;98666.21;79443;1295;3013495;-63
2023/06/29 02:07:48;;;;;;;28.60;11.80;;;;;;;16.57;77.25;98660.95;79353;1298;3011678;-61
2023/06/29 02:10:16;;;;;;;26.30;9.90;;;;;;;16.56;76.74;98660.06;78183;1298;3026308;-63
2023/06/29 02:12:43;;;;;;;26.20;11.00;;;;;;;16.26;77.96;98666.63;79561;1298;3012980;-64
2023/06/29 02:15:10;;;;;;;26.00;11.30;;;;;;;16.19;78.42;98669.49;79423;1295;3011556;-64
2023/06/29 02:17:39;;;;;;;26.50;11.80;;;;;;;16.09;77.65;98672.37;78353;1298;3051702;-63
2023/06/29 02:20:10;;;;;;;16.20;7.50;;;;;;;15.95;78.49;98673.98;79452;1298;3012977;-62
2023/06/29 02:22:39;;;;;;;13.30;6.10;;;;;;;16.56;76.86;98674.09;78208;1295;3052973;-63
2023/06/29 02:25:07;;;;;;;14.80;5.70;;;;;;;16.87;74.88;98669.94;79496;1297;3013646;-61
2023/06/29 02:27:34;;;;;;;14.20;4.80;;;;;;;16.91;74.39;98667.70;79361;1301;3013819;-62
2023/06/29 02:30:03;;;;;;;19.90;5.50;;;;;;;16.65;75.08;98666.55;78170;1295;3068486;-62
2023/06/29 02:32:30;;;;;;;12.30;5.00;;;;;;;16.48;75.48;98666.32;79487;1295;3015852;-62
2023/06/29 02:34:57;;;;;;;8.50;4.40;;;;;;;16.28;76.80;98667.81;79470;1295;3013465;-63
2023/06/29 02:37:25;;;;;;;8.80;4.30;;;;;;;16.18;77.01;98665.78;78302;1298;3053049;-64
2023/06/29 02:39:51;;;;;;;10.50;3.60;;;;;;;16.05;77.75;98664.83;79470;1295;3013441;-60
2023/06/29 02:42:18;;;;;;;7.30;3.30;;;;;;;15.96;77.72;98663.38;79555;1298;3013867;-61
2023/06/29 02:44:46;;;;;;;9.30;3.40;;;;;;;16.41;76.63;98654.11;78180;1298;3026420;-63
2023/06/29 02:47:12;;;;;;;8.60;3.80;;;;;;;16.80;74.74;98653.06;79351;1295;3021314;-64
2023/06/29 02:49:39;;;;;;;8.10;3.60;;;;;;;16.78;74.08;98657.66;79519;1294;3013993;-62
2023/06/29 02:52:07;;;;;;;19.10;6.70;;;;;;;16.62;74.86;98654.89;78347;1298;3026201;-62
2023/06/29 02:54:34;;;;;;;44.30;13.90;;;;;;;16.46;75.89;98644.39;79444;1298;3013487;-63
2023/06/29 02:57:00;;;;;;;74.80;23.70;;;;;;;16.37;75.89;98645.46;79463;1298;3011653;-63
2023/06/29 02:59:29;;;;;;;117.50;35.90;;;;;;;16.07;76.44;98645.21;78302;1298;3068754;-62
2023/06/29 03:01:55;;;;;;;79.90;24.90;;;;;;;15.92;77.04;98642.58;79384;1301;3013250;-64
2023/06/29 03:04:22;;;;;;;34.50;9.70;;;;;;;15.84;78.21;98644.32;79543;1298;3011540;-64
2023/06/29 03:06:50;;;;;;;24.50;6.30;;;;;;;16.34;76.71;98638.17;78168;1295;3028448;-62
2023/06/29 03:09:19;;;;;;;23.40;5.90;;;;;;;16.77;74.44;98634.77;79534;1298;3013083;-64
2023/06/29 03:11:45;;;;;;;12.80;4.50;;;;;;;16.69;74.98;98637.38;79476;1296;3011652;-64
2023/06/29 03:14:13;;;;;;;15.90;4.40;;;;;;;16.48;75.78;98644.05;78372;1295;3067341;-62
2023/06/29 03:16:41;;;;;;;11.30;4.50;;;;;;;16.18;77.15;98641.11;79377;1297;3013197;-62
2023/06/29 03:19:08;;;;;;;11.80;4.00;;;;;;;16.15;77.33;98635.20;79492;1295;3011614;-64
2023/06/29 03:21:37;;;;;;;11.10;3.50;;;;;;;15.89;78.42;98640.16;78241;1295;3053112;-62
2023/06/29 03:24:03;;;;;;;7.20;3.80;;;;;;;15.65;79.90;98639.61;79423;1298;3012869;-62
2023/06/29 03:26:30;;;;;;;6.50;3.40;;;;;;;16.03;78.01;98634.58;79530;1294;3011768;-64
2023/06/29 03:28:58;;;;;;;7.50;3.40;;;;;;;16.35;76.91;98627.81;78270;1298;3068806;-63
2023/06/29 03:31:25;;;;;;;7.10;2.90;;;;;;;16.34;76.80;98634.61;79445;1295;3012828;-63
2023/06/29 03:33:51;;;;;;;10.20;4.40;;;;;;;16.12;77.71;98632.50;79629;1295;3011649;-64
2023/06/29 03:36:19;;;;;;;8.10;3.70;;;;;;;16.02;78.12;98631.38;78337;1295;3025673;-63
2023/06/29 03:38:46;;;;;;;9.10;3.60;;;;;;;15.88;79.40;98631.76;79565;1298;3012998;-62
2023/06/29 03:41:12;;;;;;;9.10;3.40;;;;;;;15.85;79.54;98628.56;79517;1298;3013931;-63
2023/06/29 03:43:41;;;;;;;5.00;2.80;;;;;;;15.61;80.16;98638.32;78194;1298;3026024;-63
2023/06/29 03:46:07;;;;;;;6.60;3.30;;;;;;;15.95;79.92;98641.30;79611;1295;3013646;-64
2023/06/29 03:48:35;;;;;;;23.70;7.20;;;;;;;16.35;77.35;98631.48;79402;1295;3011451;-64
2023/06/29 03:51:04;;;;;;;20.40;8.50;;;;;;;16.46;77.02;98630.92;78112;1298;3052457;-63
2023/06/29 03:53:31;;;;;;;41.80;14.60;;;;;;;16.39;77.38;98634.52;79464;1298;3013606;-63
2023/06/29 03:55:58;;;;;;;21.50;7.50;;;;;;;16.34;78.39;98635.65;79454;1295;3011793;-63
2023/06/29 03:58:25;;;;;;;26.20;9.60;;;;;;;16.21;79.36;98636.23;78232;1298;3068552;-64
2023/06/29 04:00:52;;;;;;;37.60;12.50;;;;;;;16.11;80.12;98630.27;79579;1295;3013672;-63
2023/06/29 04:03:18;;;;;;;31.00;8.80;;;;;;;16.14;80.13;98628.80;79405;1298;3012054;-61
2023/06/29 04:05:46;;;;;;;55.40;15.60;;;;;;;16.60;79.15;98630.98;78332;1298;3026747;-64
2023/06/29 04:08:13;;;;;;;60.20;18.80;;;;;;;16.96;76.88;98635.27;79622;1298;3018757;-62
2023/06/29 04:10:41;;;;;;;84.60;25.60;;;;;;;16.96;75.39;98637.16;79436;1298;3011638;-64
2023/06/29 04:13:09;;;;;;;98.50;28.30;;;;;;;16.75;75.32;98639.05;78343;1295;3068170;-64
2023/06/29 04:15:35;;;;;;;81.00;23.10;;;;;;;16.69;75.65;98636.33;79457;1298;3011609;-62
2023/06/29 04:18:02;;;;;;;78.80;23.80;;;;;;;16.61;75.71;98634.40;79496;1295;3013468;-63
2023/06/29 04:20:32;;;;;;;29.10;11.20;;;;;;;16.42;76.91;98645.46;78221;1295;3024904;-64
2023/06/29 04:22:59;;;;;;;45.90;14.50;;;;;;;16.24;77.17;98644.59;79537;1302;3011559;-63
2023/06/29 04:25:29;;;;;;;29.80;10.50;;;;;;;16.23;78.10;98645.73;78921;1298;3011675;-65
2023/06/29 04:27:56;;;;;;;15.60;6.40;;;;;;;16.87;76.29;98639.37;79543;1295;3012845;-61
2023/06/29 04:30:22;;;;;;;11.90;5.10;;;;;;;17.13;74.57;98635.14;79443;1295;3011887;-61
2023/06/29 04:32:50;;;;;;;7.30;4.40;;;;;;;17.16;73.96;98635.14;78225;1298;3029068;-62
2023/06/29 04:35:17;;;;;;;7.50;4.60;;;;;;;17.15;74.56;98625.01;79486;1295;3012857;-62
2023/06/29 04:37:43;;;;;;;8.50;4.30;;;;;;;16.86;75.78;98619.76;79533;1298;3013497;-62
2023/06/29 04:40:14;;;;;;;8.60;4.30;;;;;;;16.72;76.29;98616.35;78210;1298;3029617;-66
2023/06/29 04:42:45;;;;;;;8.00;4.10;;;;;;;16.78;76.97;98621.42;79478;1298;3011846;-61
2023/06/29 04:45:17;;;;;;;13.80;4.60;;;;;;;16.72;77.10;98628.53;78212;1298;3069574;-63
2023/06/29 04:47:49;;;;;;;7.60;4.00;;;;;;;17.11;76.22;98635.19;79506;1295;3012683;-61
2023/06/29 04:50:25;;;;;;;6.70;3.90;;;;;;;17.19;75.25;98645.36;78312;1298;3056232;-65
2023/06/29 04:52:55;;;;;;;7.50;3.70;;;;;;;17.23;75.51;98639.95;78970;1295;3013079;-61
2023/06/29 04:55:22;;;;;;;12.30;4.00;;;;;;;17.38;75.44;98626.06;79524;1296;3014693;-62
2023/06/29 04:57:49;;;;;;;5.30;3.70;;;;;;;17.30;76.21;98625.82;79418;1295;3013298;-63
2023/06/29 05:00:18;;;;;;;6.10;3.80;;;;;;;17.19;76.26;98639.85;78291;1298;3028252;-64
2023/06/29 05:02:44;;;;;;;5.80;4.50;;;;;;;17.08;76.60;98647.53;79555;1298;3013636;-65
2023/06/29 05:05:11;;;;;;;5.60;3.40;;;;;;;16.88;77.42;98648.09;79539;1295;3013250;-64
2023/06/29 05:07:41;;;;;;;10.10;3.80;;;;;;;17.69;75.18;98640.80;78231;1296;3056075;-63
2023/06/29 05:10:08;;;;;;;10.60;4.30;;;;;;;17.60;74.53;98641.69;79521;1298;3013141;-63
2023/06/29 05:12:35;;;;;;;11.10;4.10;;;;;;;17.49;75.09;98650.92;79469;1296;3011624;-62
2023/06/29 05:15:04;;;;;;;7.10;4.50;;;;;;;17.59;74.52;98646.55;78318;1298;3051773;-64
2023/06/29 05:17:31;;;;;;;8.80;5.30;;;;;;;17.54;75.20;98643.52;79536;1298;3013128;-62
2023/06/29 05:19:58;;;;;;;8.40;4.70;;;;;;;17.42;75.69;98640.50;79520;1296;3011507;-63
2023/06/29 05:22:26;;;;;;;8.10;4.80;;;;;;;17.17;76.27;98655.96;78250;1298;3057219;-62
2023/06/29 05:24:52;;;;;;;6.80;4.40;;;;;;;17.16;76.63;98651.45;79406;1296;3019213;-64
2023/06/29 05:27:19;;;;;;;7.50;3.90;;;;;;;17.05;77.95;98640.55;79464;1295;3012968;-65
2023/06/29 05:29:47;;;;;;;8.40;3.40;;;;;;;17.48;76.26;98640.45;78236;1298;3028613;-62
2023/06/29 05:32:13;;;;;;;5.60;4.10;;;;;;;17.81;75.12;98639.58;79457;1298;3013471;-65
2023/06/29 05:34:41;;;;;;;9.20;4.40;;;;;;;17.91;74.65;98637.28;79524;1294;3011683;-63
2023/06/29 05:37:09;;;;;;;9.10;4.40;;;;;;;17.85;74.58;98645.52;78284;1298;3056600;-63
2023/06/29 05:39:35;;;;;;;10.80;5.30;;;;;;;17.68;75.30;98633.79;79503;1295;3012044;-64
2023/06/29 05:42:02;;;;;;;10.50;4.40;;;;;;;17.79;75.02;98634.95;79475;1295;3012927;-63
2023/06/29 05:44:30;;;;;;;8.50;4.40;;;;;;;17.82;74.37;98645.61;78260;1298;3027352;-63
2023/06/29 05:46:57;;;;;;;10.70;5.30;;;;;;;17.72;74.93;98646.45;79480;1298;3020654;-63
2023/06/29 05:49:25;;;;;;;6.20;3.80;;;;;;;17.68;75.41;98643.42;79495;1295;3011596;-64
2023/06/29 05:51:53;;;;;;;12.70;4.00;;;;;;;17.96;73.96;98632.23;78451;1295;3057256;-64
2023/06/29 05:54:19;;;;;;;8.20;3.70;;;;;;;18.22;72.92;98631.40;79450;1295;3018166;-63
2023/06/29 05:56:46;;;;;;;9.30;3.80;;;;;;;18.52;72.25;98630.13;79454;1299;3011563;-64
2023/06/29 05:59:14;;;;;;;6.40;4.40;;;;;;;18.36;72.81;98630.04;78272;1298;3028918;-63
2023/06/29 06:01:41;;;;;;;7.40;3.90;;;;;;;18.16;73.26;98629.43;79549;1299;3012873;-63
2023/06/29 06:04:07;;;;;;;12.00;4.80;;;;;;;17.96;74.36;98632.88;79443;1298;3012888;-64
2023/06/29 06:06:36;;;;;;;7.90;4.80;;;;;;;17.87;74.93;98634.00;78322;1295;3027964;-64
2023/06/29 06:09:03;;;;;;;11.20;5.00;;;;;;;17.84;75.76;98633.25;79603;1295;3013211;-62
2023/06/29 06:11:29;;;;;;;6.00;3.30;;;;;;;17.85;75.42;98630.05;79495;1298;3011787;-62
2023/06/29 06:13:57;;;;;;;7.50;3.50;;;;;;;18.50;74.04;98631.31;78211;1298;3052622;-62
2023/06/29 06:16:24;;;;;;;10.10;4.40;;;;;;;18.80;72.75;98630.52;79479;1298;3013322;-63
2023/06/29 06:18:51;;;;;;;8.60;3.90;;;;;;;18.97;72.65;98629.94;79484;1298;3011623;-65
2023/06/29 06:21:18;;;;;;;7.20;3.70;;;;;;;19.01;71.26;98619.79;78300;1298;3028940;-64
2023/06/29 06:23:46;;;;;;;7.50;4.30;;;;;;;19.06;70.95;98610.70;79519;1298;3013123;-65
2023/06/29 06:26:13;;;;;;;6.70;4.70;;;;;;;18.84;71.90;98609.77;79506;1298;3011463;-65
2023/06/29 06:28:41;;;;;;;7.80;4.20;;;;;;;18.69;71.43;98615.27;78191;1298;3052876;-64
2023/06/29 06:31:07;;;;;;;6.70;4.30;;;;;;;18.75;72.75;98623.98;79629;1298;3013315;-65
2023/06/29 06:33:36;;;;;;;15.00;6.00;;;;;;;18.71;73.02;98629.23;79477;1296;3011569;-64
2023/06/29 06:36:07;;;;;;;37.30;10.60;;;;;;;18.65;73.07;98631.77;78221;1295;3056160;-64
2023/06/29 06:38:34;;;;;;;26.50;8.50;;;;;;;18.72;72.82;98631.24;79444;1295;3013037;-64
2023/06/29 06:41:00;;;;;;;19.30;6.90;;;;;;;19.12;71.28;98629.48;79632;1298;3013170;-66
2023/06/29 06:43:28;;;;;;;25.90;8.50;;;;;;;19.75;68.84;98629.73;78327;1298;3027366;-65
2023/06/29 06:45:55;;;;;;;15.00;6.50;;;;;;;20.02;67.59;98633.01;77705;1298;5791845;-63
2023/06/29 06:48:21;;;;;;;9.50;5.00;;;;;;;19.86;67.61;98635.05;79510;1298;3011641;-67
2023/06/29 06:50:49;;;;;;;15.60;6.70;;;;;;;19.70;68.76;98632.45;78275;1298;3028333;-65
2023/06/29 06:53:16;;;;;;;11.60;5.40;;;;;;;19.53;69.65;98631.50;79593;1298;3019096;-65
2023/06/29 06:55:42;;;;;;;10.60;5.00;;;;;;;19.31;69.51;98640.11;79675;1298;3011666;-65
2023/06/29 06:58:10;;;;;;;15.00;8.30;;;;;;;19.24;69.98;98634.90;78381;1298;3028558;-64
2023/06/29 07:00:38;;;;;;;14.90;8.10;;;;;;;19.18;70.53;98628.05;79517;1298;3013827;-63
2023/06/29 07:03:05;;;;;;;10.10;5.10;;;;;;;19.08;71.01;98625.80;79525;1295;3011705;-63
2023/06/29 07:05:33;;;;;;;9.90;5.30;;;;;;;19.14;70.75;98608.62;78336;1298;3055294;-66
2023/06/29 07:08:00;;;;;;;8.90;4.40;;;;;;;19.24;70.23;98595.98;79483;1295;3013600;-63
2023/06/29 07:10:26;;;;;;;8.30;4.70;;;;;;;19.27;70.02;98594.22;79628;1298;3011910;-63
2023/06/29 07:12:55;;;;;;;12.20;5.70;;;;;;;19.27;69.92;98594.42;78388;1298;3053087;-67
2023/06/29 07:15:22;;;;;;;19.00;7.10;;;;;;;19.33;69.63;98603.69;79574;1296;3012997;-64
2023/06/29 07:17:48;;;;;;;5.90;4.30;;;;;;;19.41;70.07;98613.83;79618;1296;3013429;-66
2023/06/29 07:20:16;;;;;;;14.10;4.50;;;;;;;19.83;68.70;98617.75;78244;1298;3029357;-64
2023/06/29 07:22:43;;;;;;;11.30;4.60;;;;;;;20.23;67.24;98618.11;79602;1294;3012680;-66
2023/06/29 07:25:11;;;;;;;9.90;4.30;;;;;;;20.25;66.89;98618.89;79558;1296;3011712;-65
2023/06/29 07:27:39;;;;;;;7.10;4.40;;;;;;;20.17;67.36;98623.33;78363;1300;3052054;-62
2023/06/29 07:30:07;;;;;;;9.20;4.60;;;;;;;20.14;67.01;98626.50;79538;1298;3013805;-65
2023/06/29 07:32:34;;;;;;;12.00;4.40;;;;;;;20.27;66.85;98621.73;79471;1299;3011830;-64
2023/06/29 07:35:02;;;;;;;8.40;4.20;;;;;;;20.10;66.21;98634.33;78355;1298;3055394;-64
2023/06/29 07:37:29;;;;;;;6.40;3.80;;;;;;;19.86;66.69;98643.84;79564;1294;3013084;-65
2023/06/29 07:39:56;;;;;;;9.50;5.80;;;;;;;19.81;66.66;98647.20;79576;1307;3011909;-66
2023/06/29 07:42:24;;;;;;;11.10;5.00;;;;;;;19.70;68.34;98644.86;78201;1298;3026747;-63
2023/06/29 07:44:50;;;;;;;7.50;4.30;;;;;;;19.84;67.59;98647.08;79543;1304;3013172;-65
2023/06/29 07:47:18;;;;;;;19.70;6.90;;;;;;;20.00;66.70;98641.02;79549;1295;3013068;-65
2023/06/29 07:49:46;;;;;;;16.60;7.00;;;;;;;20.06;66.84;98632.35;78413;1295;3056258;-65
2023/06/29 07:52:13;;;;;;;21.60;9.10;;;;;;;20.09;66.99;98627.77;79562;1301;3012881;-64
2023/06/29 07:54:40;;;;;;;20.80;6.60;;;;;;;19.96;66.57;98630.04;79490;1295;3011605;-64
2023/06/29 07:57:08;;;;;;;16.50;6.40;;;;;;;20.07;66.22;98627.75;78291;1298;3026378;-64
2023/06/29 07:59:35;;;;;;;12.70;5.70;;;;;;;20.12;66.33;98624.80;79497;1298;3012731;-63
2023/06/29 08:02:01;;;;;;;14.60;5.90;;;;;;;20.10;66.62;98619.77;79492;1298;3013832;-64
2023/06/29 08:04:29;;;;;;;11.00;5.90;;;;;;;20.17;65.39;98613.12;78235;1298;3028267;-67
2023/06/29 08:06:56;;;;;;;15.30;7.00;;;;;;;20.23;65.12;98612.16;79597;1298;3013663;-64
2023/06/29 08:11:32;;;;;;;12.40;5.10;;;;;;;20.61;65.83;98619.80;80222;1299;3013020;-64
2023/06/29 08:13:59;;;;;;;12.00;4.60;;;;;;;20.63;65.30;98621.62;79053;1302;3013540;-65
2023/06/29 08:16:26;;;;;;;8.10;3.90;;;;;;;20.60;63.68;98626.92;79073;1299;3011475;-65
2023/06/29 08:18:54;;;;;;;7.20;3.50;;;;;;;20.64;62.38;98625.99;78005;1302;3027232;-61
2023/06/29 08:21:20;;;;;;;8.90;4.00;;;;;;;20.61;62.93;98628.38;79410;1301;3013616;-63
2023/06/29 08:23:49;;;;;;;12.90;5.40;;;;;;;20.46;62.76;98628.52;77285;1297;5882265;-63
2023/06/29 08:26:17;;;;;;;11.40;5.20;;;;;;;20.34;63.75;98625.59;78181;1298;3049693;-63
2023/06/29 08:28:44;;;;;;;12.00;4.70;;;;;;;20.46;62.92;98624.79;79357;1299;3013160;-65
2023/06/29 08:31:12;;;;;;;8.00;4.20;;;;;;;20.61;62.79;98609.19;79413;1296;3011777;-65
2023/06/29 08:33:40;;;;;;;5.80;4.00;;;;;;;20.67;63.61;98605.85;78236;1297;3050924;-63
2023/06/29 08:36:06;;;;;;;9.00;5.00;;;;;;;20.72;64.03;98607.20;79283;1298;3013122;-63
2023/06/29 08:38:33;;;;;;;10.10;5.00;;;;;;;20.65;63.31;98614.21;79296;1301;3011763;-64
2023/06/29 08:41:01;;;;;;;12.30;5.90;;;;;;;20.65;63.00;98608.23;78403;1295;3026837;-63
2023/06/29 08:43:27;;;;;;;9.70;5.70;;;;;;;20.58;63.98;98603.52;79506;1292;3013649;-65
2023/06/29 08:45:54;;;;;;;10.00;4.30;;;;;;;20.62;63.01;98595.91;79840;1292;3011794;-64
2023/06/29 08:48:23;;;;;;;6.90;3.40;;;;;;;20.66;62.51;98607.38;78375;1295;3028076;-62
2023/06/29 08:50:54;;;;;;;8.60;3.70;;;;;;;20.61;62.47;98608.98;79632;1296;3011714;-64
2023/06/29 08:53:22;;;;;;;8.40;3.60;;;;;;;20.77;62.11;98594.38;78433;1295;3056608;-63
2023/06/29 08:55:51;;;;;;;7.10;3.40;;;;;;;20.84;60.66;98587.85;79705;1292;3013408;-65
2023/06/29 08:58:20;;;;;;;6.10;3.60;;;;;;;20.94;60.78;98585.59;79769;1297;3013387;-66
2023/06/29 09:00:47;;;;;;;5.40;3.30;;;;;;;20.90;60.86;98580.71;78381;1295;3051277;-64
2023/06/29 09:03:14;;;;;;;7.50;3.60;;;;;;;21.15;60.85;98575.17;79562;1295;3013275;-63
2023/06/29 09:05:45;;;;;;;5.60;3.50;;;;;;;21.37;60.02;98572.12;79606;1291;3012072;-62
2023/06/29 09:08:13;;;;;;;6.70;3.80;;;;;;;21.10;60.92;98587.83;78589;1295;3057936;-63
2023/06/29 09:10:41;;;;;;;6.90;3.20;;;;;;;20.79;60.84;98578.27;79698;1291;3013937;-65
2023/06/29 09:13:09;;;;;;;7.00;3.60;;;;;;;20.88;60.79;98568.48;79613;1292;3013167;-62
2023/06/29 09:15:39;;;;;;;9.50;3.70;;;;;;;21.02;61.19;98573.06;78545;1292;3052098;-62
2023/06/29 09:18:07;;;;;;;4.20;3.20;;;;;;;20.92;60.53;98573.73;79823;1295;3013294;-62
2023/06/29 09:20:36;;;;;;;9.70;3.50;;;;;;;20.99;60.35;98568.05;79166;1291;3011961;-65
2023/06/29 09:23:06;;;;;;;6.30;3.70;;;;;;;20.95;60.55;98567.61;79677;1295;3013583;-62
2023/06/29 09:25:38;;;;;;;7.50;3.10;;;;;;;21.03;60.18;98567.48;78451;1295;3049245;-62
2023/06/29 09:28:05;;;;;;;7.80;3.60;;;;;;;20.96;60.54;98573.42;79620;1291;3013293;-64
2023/06/29 09:30:38;;;;;;;10.40;3.70;;;;;;;21.06;59.69;98571.42;79362;1296;3011849;-62
2023/06/29 09:33:12;;;;;;;12.00;4.90;;;;;;;21.08;60.17;98566.98;79652;1292;3011542;-62
2023/06/29 09:35:43;;;;;;;23.90;7.60;;;;;;;21.13;60.40;98550.95;78309;1297;3054015;-64
2023/06/29 09:38:10;;;;;;;20.90;8.70;;;;;;;20.97;60.75;98555.11;79725;1292;3011647;-64
2023/06/29 09:40:52;;;;;;;15.30;6.50;;;;;;;21.10;60.94;98555.83;79056;1292;3011808;-64
2023/06/29 09:43:27;;;;;;;12.80;4.40;;;;;;;21.21;60.22;98562.11;78429;1292;3056897;-62
2023/06/29 09:46:08;;;;;;;6.70;3.30;;;;;;;21.27;59.50;98562.69;78409;1291;3049450;-65
2023/06/29 09:48:54;;;;;;;4.00;3.30;;;;;;;21.26;58.78;98552.09;78348;1292;3053595;-65
2023/06/29 09:51:22;;;;;;;7.70;3.60;;;;;;;21.37;59.40;98564.81;78366;1298;3051806;-64
2023/06/29 09:53:48;;;;;;;6.90;3.40;;;;;;;21.31;58.35;98562.88;79637;1295;3013186;-64
2023/06/29 09:56:16;;;;;;;8.10;3.30;;;;;;;21.46;57.95;98565.04;79561;1292;3011838;-63
2023/06/29 09:58:45;;;;;;;8.40;3.60;;;;;;;21.44;58.01;98561.90;78444;1291;3050459;-62
2023/06/29 10:01:12;;;;;;;5.40;3.40;;;;;;;21.37;58.28;98563.41;79689;1292;3011751;-64
2023/06/29 10:03:39;;;;;;;11.20;3.70;;;;;;;21.62;58.56;98549.27;79713;1292;3012314;-63
2023/06/29 10:06:11;;;;;;;5.90;3.80;;;;;;;21.66;57.68;98551.59;78376;1296;3050185;-62
2023/06/29 10:08:42;;;;;;;7.10;3.50;;;;;;;21.55;57.22;98567.23;79731;1292;3011597;-61
2023/06/29 10:11:10;;;;;;;7.30;3.20;;;;;;;21.42;57.35;98554.95;78410;1298;3052670;-62
2023/06/29 10:13:43;;;;;;;4.90;3.40;;;;;;;21.48;57.42;98550.89;79553;1295;3012914;-63
2023/06/29 10:16:11;;;;;;;4.20;3.00;;;;;;;21.36;57.03;98543.48;78375;1296;3056567;-63
2023/06/29 10:18:44;;;;;;;5.90;3.90;;;;;;;21.53;56.90;98536.59;79636;1292;3013110;-62
2023/06/29 10:21:12;;;;;;;5.80;3.00;;;;;;;21.72;56.10;98539.85;78436;1297;3050587;-65
2023/06/29 10:23:40;;;;;;;10.80;4.00;;;;;;;22.01;54.81;98545.41;79849;1296;3019377;-63
2023/06/29 10:26:06;;;;;;;15.20;4.80;;;;;;;21.99;54.72;98537.98;79743;1295;3012389;-64
2023/06/29 10:28:35;;;;;;;13.40;4.00;;;;;;;21.76;55.12;98540.73;78458;1296;3051385;-63
2023/06/29 10:31:01;;;;;;;12.50;5.00;;;;;;;21.74;55.50;98531.01;79642;1292;3013576;-62
2023/06/29 10:33:28;;;;;;;13.70;4.30;;;;;;;21.87;55.02;98534.31;79574;1297;3013299;-63
2023/06/29 10:36:01;;;;;;;12.30;4.00;;;;;;;21.78;54.61;98544.59;78308;1298;3028506;-62
2023/06/29 10:38:32;;;;;;;12.10;3.50;;;;;;;21.89;54.39;98543.97;79660;1295;3011893;-62
2023/06/29 10:41:00;;;;;;;5.40;3.20;;;;;;;22.09;54.73;98546.13;78448;1298;3053053;-63
2023/06/29 10:43:27;;;;;;;9.20;3.60;;;;;;;22.24;54.45;98537.98;79759;1292;3013002;-62
2023/06/29 10:45:56;;;;;;;8.30;3.80;;;;;;;22.19;53.87;98535.98;79608;1292;3013787;-61
2023/06/29 10:48:23;;;;;;;13.30;4.60;;;;;;;22.08;53.08;98536.55;78207;1292;3049602;-62
2023/06/29 10:50:50;;;;;;;6.10;3.10;;;;;;;22.04;53.21;98548.74;79462;1298;3012956;-62
2023/06/29 10:53:17;;;;;;;10.30;2.80;;;;;;;21.99;53.03;98537.58;79694;1298;3011763;-64
2023/06/29 10:55:52;;;;;;;6.70;3.10;;;;;;;22.25;52.53;98527.33;78553;1291;3026680;-64
2023/06/29 10:58:26;;;;;;;8.10;2.90;;;;;;;22.21;51.90;98540.71;79156;1293;3011792;-65
2023/06/29 11:00:53;;;;;;;7.50;2.90;;;;;;;21.89;52.85;98533.80;79819;1292;3013096;-62
2023/06/29 11:03:22;;;;;;;8.40;2.60;;;;;;;21.79;52.91;98536.48;78356;1292;3050275;-63
2023/06/29 11:05:53;;;;;;;4.10;2.70;;;;;;;21.73;53.37;98532.46;79742;1291;3013682;-63
2023/06/29 11:08:21;;;;;;;6.20;3.20;;;;;;;21.85;53.17;98531.83;78360;1295;3052430;-64
2023/06/29 11:10:50;;;;;;;4.90;2.70;;;;;;;21.84;53.53;98528.73;79638;1295;3011981;-64
2023/06/29 11:13:19;;;;;;;5.80;3.20;;;;;;;22.01;53.54;98526.81;79162;1292;3011792;-65
2023/06/29 11:15:54;;;;;;;10.10;2.90;;;;;;;22.24;53.09;98517.54;79796;1295;3014521;-65
2023/06/29 11:18:22;;;;;;;5.90;3.30;;;;;;;22.31;52.10;98514.72;78504;1293;3051253;-63
2023/06/29 11:20:49;;;;;;;6.90;2.70;;;;;;;22.47;51.76;98512.58;79678;1293;3018442;-63